createdAt,value
2018-06-05T00:02:20.615Z,21.37
2018-06-05T00:04:48.867Z,21.17
2018-06-05T00:07:17.133Z,21.50
2018-06-05T00:09:45.350Z,20.23
2018-06-05T00:12:13.598Z,21.63
2018-06-05T00:14:41.836Z,20.90
2018-06-05T00:17:10.072Z,21.40
2018-06-05T00:19:38.328Z,21.00
2018-06-05T00:22:06.563Z,22.53
2018-06-05T00:24:34.803Z,21.90
2018-06-05T00:27:03.004Z,21.80
2018-06-05T00:29:31.230Z,21.70
2018-06-05T00:31:59.436Z,21.77
2018-06-05T00:34:27.645Z,22.37
2018-06-05T00:36:55.936Z,24.60
2018-06-05T00:39:24.137Z,22.70
2018-06-05T00:41:52.331Z,23.50
2018-06-05T00:44:20.553Z,23.17
2018-06-05T00:46:48.748Z,23.53
2018-06-05T00:49:16.927Z,21.93
2018-06-05T00:51:56.572Z,23.10
2018-06-05T00:54:24.824Z,23.27
2018-06-05T00:56:53.068Z,22.10
2018-06-05T00:59:21.301Z,22.90
2018-06-05T01:01:49.537Z,24.00
2018-06-05T01:04:17.766Z,22.53
2018-06-05T01:06:45.977Z,22.20
2018-06-05T01:09:14.172Z,23.03
2018-06-05T01:11:42.400Z,23.73
2018-06-05T01:14:10.625Z,23.50
2018-06-05T01:16:38.855Z,22.90
2018-06-05T01:19:07.080Z,21.83
2018-06-05T01:21:35.290Z,23.20
2018-06-05T01:24:03.575Z,23.80
2018-06-05T01:26:31.807Z,22.70
2018-06-05T01:29:00.021Z,22.90
2018-06-05T01:31:28.206Z,22.47
2018-06-05T01:33:56.443Z,23.83
2018-06-05T01:36:24.771Z,22.43
2018-06-05T01:38:52.974Z,23.23
2018-06-05T01:41:21.216Z,22.47
2018-06-05T01:43:49.437Z,23.67
2018-06-05T01:46:17.646Z,25.10
2018-06-05T01:48:45.857Z,23.43
2018-06-05T01:51:14.032Z,22.30
2018-06-05T01:53:42.417Z,24.07
2018-06-05T01:56:10.658Z,23.80
2018-06-05T01:58:38.835Z,25.80
2018-06-05T02:01:07.082Z,23.77
2018-06-05T02:03:35.270Z,23.50
2018-06-05T02:06:03.500Z,23.67
2018-06-05T02:08:31.710Z,25.10
2018-06-05T02:10:59.964Z,23.70
2018-06-05T02:13:28.269Z,23.77
2018-06-05T02:15:56.468Z,24.43
2018-06-05T02:18:24.749Z,23.53
2018-06-05T02:20:52.960Z,23.47
2018-06-05T02:23:21.202Z,23.90
2018-06-05T02:25:49.431Z,24.93
2018-06-05T02:28:17.712Z,26.40
2018-06-05T02:30:45.964Z,29.07
2018-06-05T02:33:14.217Z,25.30
2018-06-05T02:35:42.445Z,25.87
2018-06-05T02:38:10.759Z,24.73
2018-06-05T02:40:38.952Z,24.87
2018-06-05T02:43:07.175Z,26.97
2018-06-05T02:45:35.526Z,26.07
2018-06-05T02:48:03.745Z,25.37
2018-06-05T02:50:31.939Z,27.00
2018-06-05T02:53:00.181Z,25.80
2018-06-05T02:55:28.450Z,25.93
2018-06-05T02:58:03.623Z,25.90
2018-06-05T03:00:31.809Z,24.13
2018-06-05T03:03:00.097Z,24.53
2018-06-05T03:05:28.430Z,25.20
2018-06-05T03:07:56.712Z,23.47
2018-06-05T03:10:24.945Z,23.40
2018-06-05T03:12:58.754Z,25.47
2018-06-05T03:15:27.020Z,24.67
2018-06-05T03:17:55.274Z,26.90
2018-06-05T03:20:23.491Z,24.57
2018-06-05T03:22:51.695Z,25.40
2018-06-05T03:25:19.999Z,25.27
2018-06-05T03:27:48.273Z,24.87
2018-06-05T03:30:16.592Z,24.77
2018-06-05T03:32:44.838Z,24.03
2018-06-05T03:35:13.149Z,24.30
2018-06-05T03:37:41.407Z,23.67
2018-06-05T03:40:09.575Z,22.70
2018-06-05T03:42:37.766Z,23.80
2018-06-05T03:45:06.231Z,24.60
2018-06-05T03:47:34.448Z,22.13
2018-06-05T03:50:02.696Z,23.13
2018-06-05T03:52:30.933Z,23.13
2018-06-05T03:54:59.170Z,21.30
2018-06-05T03:57:27.486Z,23.30
2018-06-05T03:59:55.709Z,21.50
2018-06-05T04:02:23.956Z,21.40
2018-06-05T04:04:52.299Z,20.73
2018-06-05T04:07:20.553Z,21.87
2018-06-05T04:09:48.787Z,20.87
2018-06-05T04:12:17.040Z,18.77
2018-06-05T04:14:45.275Z,18.77
2018-06-05T04:17:13.501Z,19.83
2018-06-05T04:19:41.672Z,19.47
2018-06-05T04:22:09.950Z,18.60
2018-06-05T04:24:38.200Z,18.03
2018-06-05T04:27:06.534Z,18.37
2018-06-05T04:29:34.695Z,18.37
2018-06-05T04:32:02.927Z,19.77
2018-06-05T04:34:31.173Z,18.87
2018-06-05T04:36:59.457Z,19.70
2018-06-05T04:39:27.705Z,20.23
2018-06-05T04:41:55.924Z,19.27
2018-06-05T04:44:24.153Z,19.27
2018-06-05T04:46:52.381Z,19.87
2018-06-05T04:49:20.615Z,20.33
2018-06-05T04:51:48.888Z,20.50
2018-06-05T04:54:17.148Z,18.30
2018-06-05T04:56:45.795Z,19.27
2018-06-05T04:59:14.038Z,19.33
2018-06-05T05:01:42.304Z,18.63
2018-06-05T05:04:10.513Z,18.17
2018-06-05T05:06:38.737Z,18.60
2018-06-05T05:09:07.522Z,18.60
2018-06-05T05:11:36.131Z,17.57
2018-06-05T05:14:04.385Z,18.60
2018-06-05T05:16:32.686Z,18.40
2018-06-05T05:19:00.911Z,17.10
2018-06-05T05:21:29.140Z,16.90
2018-06-05T05:23:57.405Z,17.33
2018-06-05T05:26:25.665Z,16.87
2018-06-05T05:28:53.851Z,18.33
2018-06-05T05:31:22.112Z,16.10
2018-06-05T05:33:50.288Z,17.23
2018-06-05T05:36:18.544Z,17.23
2018-06-05T05:38:46.734Z,15.90
2018-06-05T05:41:14.968Z,18.17
2018-06-05T05:43:43.198Z,17.80
2018-06-05T05:46:11.493Z,18.27
2018-06-05T05:48:39.664Z,16.47
2018-06-05T05:51:07.895Z,17.33
2018-06-05T05:53:36.079Z,16.43
2018-06-05T05:56:04.322Z,16.47
2018-06-05T05:58:32.557Z,16.57
2018-06-05T06:01:00.765Z,17.63
2018-06-05T06:03:28.992Z,16.20
2018-06-05T06:05:57.288Z,15.43
2018-06-05T06:08:25.507Z,16.30
2018-06-05T06:10:53.894Z,18.53
2018-06-05T06:13:22.070Z,15.63
2018-06-05T06:15:50.256Z,17.00
2018-06-05T06:18:18.493Z,17.30
2018-06-05T06:20:46.746Z,17.70
2018-06-05T06:23:14.965Z,16.93
2018-06-05T06:25:43.212Z,17.97
2018-06-05T06:28:11.482Z,16.90
2018-06-05T06:30:39.676Z,17.20
2018-06-05T06:33:07.900Z,16.80
2018-06-05T06:35:36.091Z,18.43
2018-06-05T06:38:04.347Z,17.83
2018-06-05T06:40:32.594Z,17.97
2018-06-05T06:43:00.825Z,18.57
2018-06-05T06:45:29.097Z,18.47
2018-06-05T06:47:57.356Z,16.63
2018-06-05T06:50:25.575Z,18.17
2018-06-05T06:52:53.788Z,17.67
2018-06-05T06:55:22.031Z,17.77
2018-06-05T06:57:50.226Z,16.60
2018-06-05T07:00:18.453Z,18.30
2018-06-05T07:02:46.692Z,16.87
2018-06-05T07:05:14.902Z,15.60
2018-06-05T07:07:43.138Z,16.90
2018-06-05T07:10:11.441Z,15.40
2018-06-05T07:12:39.667Z,16.23
2018-06-05T07:15:07.876Z,18.50
2018-06-05T07:17:36.169Z,16.77
2018-06-05T07:20:04.376Z,16.33
2018-06-05T07:22:32.738Z,16.17
2018-06-05T07:25:01.043Z,17.10
2018-06-05T07:27:29.317Z,20.60
2018-06-05T07:29:57.505Z,16.47
2018-06-05T07:32:25.743Z,16.23
2018-06-05T07:34:54.009Z,17.40
2018-06-05T07:37:22.217Z,19.40
2018-06-05T07:39:50.460Z,18.40
2018-06-05T07:42:18.705Z,16.07
2018-06-05T07:44:46.916Z,20.00
2018-06-05T07:47:15.205Z,15.63
2018-06-05T07:49:43.455Z,15.77
2018-06-05T07:52:11.721Z,16.90
2018-06-05T07:54:39.968Z,15.00
2018-06-05T07:57:08.252Z,17.10
2018-06-05T07:59:36.496Z,17.10
2018-06-05T08:02:04.789Z,16.60
2018-06-05T08:04:32.982Z,16.20
2018-06-05T08:07:01.463Z,14.40
2018-06-05T08:09:29.684Z,13.23
2018-06-05T08:11:57.937Z,14.00
2018-06-05T08:14:26.217Z,14.83
2018-06-05T08:16:54.442Z,13.20
2018-06-05T08:19:22.675Z,14.30
2018-06-05T08:21:50.904Z,16.67
2018-06-05T08:24:19.132Z,13.13
2018-06-05T08:26:52.669Z,15.07
2018-06-05T08:29:21.336Z,15.50
2018-06-05T08:31:49.635Z,15.67
2018-06-05T08:34:17.909Z,15.50
2018-06-05T08:36:46.213Z,15.80
2018-06-05T08:39:14.455Z,16.60
2018-06-05T08:41:42.656Z,15.27
2018-06-05T08:44:10.927Z,18.87
2018-06-05T08:46:39.173Z,16.33
2018-06-05T08:49:07.388Z,15.77
2018-06-05T08:51:35.670Z,15.97
2018-06-05T08:54:03.857Z,16.13
2018-06-05T08:56:32.064Z,15.93
2018-06-05T08:59:00.259Z,15.77
2018-06-05T09:01:28.490Z,15.67
2018-06-05T09:03:56.878Z,17.37
2018-06-05T09:06:25.116Z,16.13
2018-06-05T09:08:53.297Z,17.07
2018-06-05T09:11:21.549Z,17.13
2018-06-05T09:13:49.735Z,17.70
2018-06-05T09:16:17.899Z,16.93
2018-06-05T09:18:46.097Z,16.50
2018-06-05T09:21:14.334Z,18.03
2018-06-05T09:23:42.485Z,16.60
2018-06-05T09:26:10.744Z,16.07
2018-06-05T09:28:38.975Z,16.47
2018-06-05T09:31:07.163Z,16.17
2018-06-05T09:33:35.432Z,15.77
2018-06-05T09:36:03.693Z,17.70
2018-06-05T09:38:32.045Z,16.17
2018-06-05T09:41:00.371Z,15.80
2018-06-05T09:43:28.552Z,15.40
2018-06-05T09:45:56.829Z,16.60
2018-06-05T09:48:25.022Z,17.57
2018-06-05T09:50:53.256Z,17.10
2018-06-05T09:53:21.401Z,16.67
2018-06-05T09:55:49.642Z,16.03
2018-06-05T09:58:18.179Z,16.57
2018-06-05T10:00:51.368Z,16.40
2018-06-05T10:03:20.293Z,16.10
2018-06-05T10:05:48.525Z,18.20
2018-06-05T10:08:16.763Z,17.97
2018-06-05T10:10:45.009Z,16.40
2018-06-05T10:13:13.323Z,17.97
2018-06-05T10:15:41.739Z,19.87
2018-06-05T10:18:09.965Z,16.93
2018-06-05T10:20:38.200Z,18.53
2018-06-05T10:23:06.846Z,18.90
2018-06-05T10:25:35.068Z,17.90
2018-06-05T10:28:03.299Z,18.03
2018-06-05T10:30:31.511Z,17.47
2018-06-05T10:32:59.733Z,17.57
2018-06-05T10:35:28.035Z,20.77
2018-06-05T10:37:56.287Z,19.90
2018-06-05T10:40:24.503Z,21.90
2018-06-05T10:42:52.686Z,19.43
2018-06-05T10:45:20.944Z,19.37
2018-06-05T10:47:49.266Z,18.50
2018-06-05T10:50:17.528Z,16.30
2018-06-05T10:52:45.809Z,19.33
2018-06-05T10:55:14.032Z,19.03
2018-06-05T10:57:42.266Z,17.90
2018-06-05T11:00:10.470Z,18.33
2018-06-05T11:02:38.704Z,18.00
2018-06-05T11:05:06.977Z,17.93
2018-06-05T11:07:35.237Z,18.47
2018-06-05T11:10:03.527Z,22.77
2018-06-05T11:12:31.737Z,20.63
2018-06-05T11:14:59.980Z,19.33
2018-06-05T11:17:28.189Z,18.77
2018-06-05T11:19:56.368Z,19.50
2018-06-05T11:22:24.633Z,20.37
2018-06-05T11:24:52.850Z,18.60
2018-06-05T11:27:21.089Z,19.70
2018-06-05T11:29:49.358Z,19.67
2018-06-05T11:32:17.597Z,19.23
2018-06-05T11:34:46.010Z,21.30
2018-06-05T11:37:14.241Z,19.50
2018-06-05T11:39:42.425Z,19.67
2018-06-05T11:42:10.693Z,19.27
2018-06-05T11:44:38.967Z,19.60
2018-06-05T11:47:07.232Z,19.60
2018-06-05T11:49:35.455Z,20.63
2018-06-05T11:52:03.843Z,19.03
2018-06-05T11:54:32.070Z,19.27
2018-06-05T11:57:00.261Z,18.63
2018-06-05T11:59:28.527Z,18.30
2018-06-05T12:01:56.743Z,16.70
2018-06-05T12:04:24.971Z,17.20
2018-06-05T12:06:53.281Z,19.43
2018-06-05T12:09:21.645Z,16.50
2018-06-05T12:11:49.848Z,15.77
2018-06-05T12:14:18.148Z,16.60
2018-06-05T12:16:46.333Z,18.50
2018-06-05T12:19:14.511Z,16.30
2018-06-05T12:21:42.749Z,16.97
2018-06-05T12:24:11.188Z,16.30
2018-06-05T12:26:39.383Z,16.60
2018-06-05T12:29:07.642Z,15.63
2018-06-05T12:31:35.920Z,16.53
2018-06-05T12:34:04.153Z,16.10
2018-06-05T12:36:32.386Z,16.87
2018-06-05T12:39:00.661Z,16.13
2018-06-05T12:41:28.884Z,18.70
2018-06-05T12:43:57.044Z,17.47
2018-06-05T12:46:25.287Z,16.27
2018-06-05T12:48:53.518Z,14.80
2018-06-05T12:51:21.711Z,17.17
2018-06-05T12:53:49.976Z,15.33
2018-06-05T12:56:18.204Z,16.20
2018-06-05T12:58:46.404Z,19.00
2018-06-05T13:01:14.625Z,17.20
2018-06-05T13:03:42.918Z,15.27
2018-06-05T13:06:11.156Z,16.40
2018-06-05T13:08:39.466Z,16.73
2018-06-05T13:11:07.729Z,15.70
2018-06-05T13:13:35.964Z,16.20
2018-06-05T13:16:04.218Z,17.57
2018-06-05T13:18:32.457Z,15.57
2018-06-05T13:21:00.642Z,13.33
2018-06-05T13:23:28.928Z,14.90
2018-06-05T13:25:57.229Z,13.47
2018-06-05T13:28:25.374Z,12.90
2018-06-05T13:30:53.628Z,15.27
2018-06-05T13:33:21.875Z,11.93
2018-06-05T13:35:50.105Z,9.27
2018-06-05T13:38:18.358Z,9.60
2018-06-05T13:40:46.665Z,11.10
2018-06-05T13:43:14.869Z,9.67
2018-06-05T13:45:43.044Z,9.07
2018-06-05T13:48:11.430Z,10.13
2018-06-05T13:50:39.641Z,8.90
2018-06-05T13:53:07.914Z,8.20
2018-06-05T13:55:36.134Z,8.17
2018-06-05T13:58:04.336Z,7.97
2018-06-05T14:00:32.531Z,9.00
2018-06-05T14:03:00.756Z,8.90
2018-06-05T14:05:29.003Z,9.67
2018-06-05T14:07:57.224Z,8.50
2018-06-05T14:10:25.483Z,8.97
2018-06-05T14:12:53.744Z,8.77
2018-06-05T14:15:21.941Z,8.00
2018-06-05T14:17:50.198Z,9.30
2018-06-05T14:20:18.396Z,7.07
2018-06-05T14:22:46.636Z,8.30
2018-06-05T14:25:14.851Z,8.30
2018-06-05T14:27:43.078Z,8.97
2018-06-05T14:30:11.406Z,8.10
2018-06-05T14:32:39.689Z,9.27
2018-06-05T14:35:07.938Z,9.10
2018-06-05T14:37:36.192Z,8.80
2018-06-05T14:40:04.722Z,8.90
2018-06-05T14:42:32.923Z,9.83
2018-06-05T14:45:01.209Z,7.90
2018-06-05T14:47:29.351Z,10.23
2018-06-05T14:49:57.607Z,8.70
2018-06-05T14:52:25.876Z,9.30
2018-06-05T14:54:54.111Z,8.23
2018-06-05T14:57:22.336Z,7.93
2018-06-05T14:59:50.573Z,8.00
2018-06-05T15:02:18.788Z,7.67
2018-06-05T15:04:47.083Z,7.63
2018-06-05T15:07:15.311Z,7.70
2018-06-05T15:09:43.765Z,7.20
2018-06-05T15:12:12.080Z,7.63
2018-06-05T15:14:40.285Z,7.67
2018-06-05T15:17:08.516Z,7.40
2018-06-05T15:19:36.750Z,7.27
2018-06-05T15:22:05.009Z,8.30
2018-06-05T15:24:33.239Z,7.73
2018-06-05T15:27:01.508Z,7.90
2018-06-05T15:29:29.727Z,8.50
2018-06-05T15:31:58.021Z,7.23
2018-06-05T15:34:26.243Z,7.07
2018-06-05T15:36:54.518Z,8.90
2018-06-05T15:39:22.729Z,7.80
2018-06-05T15:41:50.958Z,8.40
2018-06-05T15:44:19.225Z,10.97
2018-06-05T15:46:47.485Z,7.83
2018-06-05T15:49:15.689Z,8.50
2018-06-05T15:51:43.925Z,7.80
2018-06-05T15:54:12.318Z,7.53
2018-06-05T15:56:40.516Z,6.90
2018-06-05T15:59:08.709Z,8.00
2018-06-05T16:01:36.918Z,7.87
2018-06-05T16:04:05.489Z,7.87
2018-06-05T16:06:33.762Z,8.77
2018-06-05T16:09:01.980Z,8.90
2018-06-05T16:11:30.274Z,7.93
2018-06-05T16:13:58.506Z,8.90
2018-06-05T16:16:26.672Z,8.80
2018-06-05T16:18:54.843Z,9.70
2018-06-05T16:21:23.074Z,8.63
2018-06-05T16:23:51.597Z,8.00
2018-06-05T16:26:19.827Z,13.70
2018-06-05T16:28:48.032Z,9.67
2018-06-05T16:31:16.290Z,9.37
2018-06-05T16:33:44.503Z,8.83
2018-06-05T16:36:12.713Z,8.67
2018-06-05T16:38:41.001Z,8.60
2018-06-05T16:41:09.145Z,9.43
2018-06-05T16:43:37.369Z,11.53
2018-06-05T16:46:05.552Z,8.80
2018-06-05T16:48:33.895Z,10.33
2018-06-05T16:51:02.128Z,8.40
2018-06-05T16:53:30.351Z,9.63
2018-06-05T16:55:58.614Z,8.53
2018-06-05T16:58:26.856Z,8.80
2018-06-05T17:00:55.092Z,9.30
2018-06-05T17:03:23.296Z,9.23
2018-06-05T17:05:51.521Z,9.80
2018-06-05T17:08:19.721Z,9.03
2018-06-05T17:10:48.026Z,9.77
2018-06-05T17:13:16.210Z,8.60
2018-06-05T17:15:44.441Z,10.00
2018-06-05T17:18:12.672Z,9.70
2018-06-05T17:20:40.904Z,9.10
2018-06-05T17:23:09.231Z,9.73
2018-06-05T17:25:37.463Z,9.67
2018-06-05T17:28:05.728Z,9.60
2018-06-05T17:30:33.906Z,15.33
2018-06-05T17:33:02.082Z,9.50
2018-06-05T17:35:30.248Z,8.20
2018-06-05T17:37:58.420Z,9.83
2018-06-05T17:40:27.054Z,9.47
2018-06-05T17:42:55.555Z,9.47
2018-06-05T17:45:23.761Z,9.27
2018-06-05T17:47:52.017Z,10.33
2018-06-05T17:50:20.300Z,9.27
2018-06-05T17:52:50.271Z,7.87
2018-06-05T17:55:20.126Z,6.87
2018-06-05T17:57:48.475Z,7.20
2018-06-05T18:00:17.178Z,6.37
2018-06-05T18:02:46.226Z,5.40
2018-06-05T18:05:15.665Z,5.10
2018-06-05T18:07:44.616Z,5.07
2018-06-05T18:10:13.923Z,4.20
2018-06-05T18:12:43.155Z,4.23
2018-06-05T18:15:12.172Z,3.53
2018-06-05T18:17:41.847Z,3.83
2018-06-05T18:20:11.789Z,6.57
2018-06-05T18:22:40.825Z,2.97
2018-06-05T18:25:10.412Z,2.30
2018-06-05T18:27:40.059Z,3.13
2018-06-05T18:30:08.526Z,4.47
2018-06-05T18:32:37.678Z,3.40
2018-06-05T18:35:06.512Z,2.40
2018-06-05T18:37:34.949Z,3.50
2018-06-05T18:40:03.699Z,3.40
2018-06-05T18:42:32.490Z,3.70
2018-06-05T18:45:01.022Z,4.10
2018-06-05T18:47:29.498Z,3.00
2018-06-05T18:49:58.572Z,3.43
2018-06-05T18:52:27.957Z,3.40
2018-06-05T18:54:56.578Z,3.93
2018-06-05T18:57:25.233Z,2.80
2018-06-05T18:59:54.300Z,3.30
2018-06-05T19:02:23.104Z,3.00
2018-06-05T19:04:51.384Z,2.10
2018-06-05T19:07:19.633Z,2.83
2018-06-05T19:09:47.868Z,1.30
2018-06-05T19:12:16.240Z,2.23
2018-06-05T19:14:44.586Z,2.17
2018-06-05T19:17:12.821Z,2.20
2018-06-05T19:19:40.983Z,1.70
2018-06-05T19:22:09.322Z,2.00
2018-06-05T19:24:37.619Z,2.60
2018-06-05T19:27:05.935Z,2.20
2018-06-05T19:29:34.227Z,2.33
2018-06-05T19:32:02.566Z,2.73
2018-06-05T19:34:30.901Z,2.70
2018-06-05T19:36:59.154Z,3.10
2018-06-05T19:39:27.490Z,2.93
2018-06-05T19:41:55.715Z,3.20
2018-06-05T19:44:24.225Z,2.40
2018-06-05T19:46:53.282Z,2.77
2018-06-05T19:49:22.303Z,3.47
2018-06-05T19:51:50.991Z,2.50
2018-06-05T19:54:19.941Z,3.60
2018-06-05T19:56:48.428Z,2.90
2018-06-05T19:59:17.409Z,2.07
2018-06-05T20:01:46.336Z,2.80
2018-06-05T20:04:14.704Z,4.67
2018-06-05T20:06:43.117Z,2.90
2018-06-05T20:09:11.598Z,2.67
2018-06-05T20:11:39.989Z,2.47
2018-06-05T20:14:08.568Z,2.60
2018-06-05T20:16:37.480Z,3.03
2018-06-05T20:19:05.864Z,5.40
2018-06-05T20:21:34.688Z,2.30
2018-06-05T20:24:02.980Z,2.30
2018-06-05T20:26:31.458Z,2.80
2018-06-05T20:28:59.944Z,2.20
2018-06-05T20:31:28.440Z,2.97
2018-06-05T20:33:57.164Z,3.20
2018-06-05T20:36:25.654Z,2.70
2018-06-05T20:38:53.909Z,2.47
2018-06-05T20:41:22.143Z,2.43
2018-06-05T20:43:50.360Z,2.70
2018-06-05T20:46:18.600Z,3.13
2018-06-05T20:48:46.831Z,3.10
2018-06-05T20:51:15.129Z,2.60
2018-06-05T20:53:43.357Z,2.20
2018-06-05T20:56:11.606Z,2.77
2018-06-05T20:58:39.884Z,4.50
2018-06-05T21:01:08.113Z,2.27
2018-06-05T21:03:36.361Z,2.37
2018-06-05T21:06:04.599Z,1.90
2018-06-05T21:08:33.713Z,2.70
2018-06-05T21:11:02.020Z,2.70
2018-06-05T21:13:30.265Z,2.23
2018-06-05T21:15:58.492Z,2.27
2018-06-05T21:18:26.753Z,2.20
2018-06-05T21:20:54.931Z,2.83
2018-06-05T21:23:23.196Z,2.00
2018-06-05T21:25:51.388Z,2.20
2018-06-05T21:28:19.609Z,2.20
2018-06-05T21:30:47.836Z,2.90
2018-06-05T21:33:16.124Z,2.77
2018-06-05T21:35:44.339Z,2.50
2018-06-05T21:38:12.595Z,2.30
2018-06-05T21:40:40.872Z,2.27
2018-06-05T21:43:09.112Z,3.10
2018-06-05T21:45:37.322Z,2.83
2018-06-05T21:48:05.596Z,2.23
2018-06-05T21:50:33.945Z,2.40
2018-06-05T21:53:02.473Z,2.43
2018-06-05T21:55:30.726Z,2.87
2018-06-05T21:57:58.910Z,2.13
2018-06-05T22:00:27.147Z,1.80
2018-06-05T22:02:55.480Z,2.50
2018-06-05T22:05:23.727Z,2.83
2018-06-05T22:07:52.008Z,2.90
2018-06-05T22:10:20.227Z,2.60
2018-06-05T22:12:48.806Z,2.60
2018-06-05T22:15:17.058Z,2.77
2018-06-05T22:17:45.310Z,2.80
2018-06-05T22:20:13.577Z,2.83
2018-06-05T22:22:41.801Z,2.60
2018-06-05T22:25:10.140Z,2.73
2018-06-05T22:27:38.445Z,3.10
2018-06-05T22:30:07.723Z,2.47
2018-06-05T22:32:35.937Z,3.03
2018-06-05T22:35:04.209Z,3.50
2018-06-05T22:37:32.424Z,2.67
2018-06-05T22:40:00.691Z,2.60
2018-06-05T22:42:28.976Z,2.17
2018-06-05T22:44:57.315Z,2.40
2018-06-05T22:47:25.672Z,2.40
2018-06-05T22:49:53.876Z,2.10
2018-06-05T22:52:22.105Z,2.03
2018-06-05T22:54:50.284Z,2.90
2018-06-05T22:57:18.603Z,2.03
2018-06-05T22:59:46.914Z,2.23
2018-06-05T23:02:15.125Z,2.30
2018-06-05T23:04:43.423Z,2.70
2018-06-05T23:07:11.646Z,2.43
2018-06-05T23:09:39.906Z,2.73
2018-06-05T23:12:08.106Z,2.70
2018-06-05T23:14:36.370Z,2.50
2018-06-05T23:17:04.551Z,2.37
2018-06-05T23:19:32.824Z,2.50
2018-06-05T23:22:01.031Z,2.63
2018-06-05T23:24:29.202Z,2.27
2018-06-05T23:26:57.405Z,2.80
2018-06-05T23:29:25.642Z,2.30
2018-06-05T23:31:53.874Z,2.40
2018-06-05T23:34:22.213Z,2.30
2018-06-05T23:36:50.418Z,2.40
2018-06-05T23:39:18.661Z,2.20
2018-06-05T23:41:46.909Z,2.30
2018-06-05T23:44:15.100Z,2.10
2018-06-05T23:46:43.374Z,2.00
2018-06-05T23:49:11.591Z,2.00
2018-06-05T23:51:39.802Z,2.53
2018-06-05T23:54:08.065Z,2.17
2018-06-05T23:56:36.218Z,2.20
2018-06-05T23:59:04.470Z,2.10
